Terminal Aerodrome Forecast
Issued by NWS Flagstaff, AZ

Home | Current Version | Previous Version | Text Only | Print | Product List | Glossary On
Versions: 1 2 3 4 5 6 7 8 9 10 11 12 13 14 15 16
000
FTUS45 KFGZ 042102 AAA
TAFINW
TAF AMD
KINW 042102Z 0421/0518 VRB05KT P6SM SCT090 BKN120
      TEMPO 0421/0501 VRB15G30KT -TSRA BKN070CB
     FM050200 24008KT P6SM SCT060 BKN100
     FM050300 VRB06KT P6SM FEW060 SCT110 PROB30 0506/0512 TSRA
      BKN060CB=

USA.gov is the U.S. government's official web portal to all federal, state and local government web resources and services.